createdAt,value
2023-02-19T00:01:48.131Z,2.25
2023-02-19T00:04:17.264Z,3.15
2023-02-19T00:06:45.919Z,2.20
2023-02-19T00:09:15.191Z,3.80
2023-02-19T00:11:43.183Z,4.00
2023-02-19T00:14:16.017Z,3.65
2023-02-19T00:19:14.637Z,4.07
2023-02-19T00:21:41.647Z,3.58
2023-02-19T00:24:11.766Z,2.33
2023-02-19T00:29:14.120Z,3.35
2023-02-19T00:31:41.353Z,5.88
2023-02-19T00:34:10.099Z,3.92
2023-02-19T00:36:39.249Z,4.32
2023-02-19T00:39:07.534Z,4.30
2023-02-19T00:41:34.670Z,2.40
2023-02-19T00:44:05.756Z,2.78
2023-02-19T00:46:39.662Z,3.85
2023-02-19T00:49:08.760Z,4.35
2023-02-19T00:51:37.961Z,3.90
2023-02-19T00:54:06.248Z,4.55
2023-02-19T00:56:33.403Z,4.32
2023-02-19T00:59:00.220Z,7.40
2023-02-19T01:01:27.113Z,4.47
2023-02-19T01:03:53.932Z,5.45
2023-02-19T01:06:21.499Z,6.28
2023-02-19T01:08:49.032Z,6.18
2023-02-19T01:11:16.913Z,4.68
2023-02-19T01:13:43.997Z,4.90
2023-02-19T01:16:18.590Z,3.63
2023-02-19T01:18:46.604Z,5.28
2023-02-19T01:21:16.659Z,3.90
2023-02-19T01:23:44.328Z,3.67
2023-02-19T01:26:19.133Z,2.65
2023-02-19T01:28:46.124Z,3.55
2023-02-19T01:31:17.003Z,1.75
2023-02-19T01:33:49.492Z,3.05
2023-02-19T01:36:16.564Z,4.38
2023-02-19T01:38:43.886Z,3.65
2023-02-19T01:41:17.407Z,4.85
2023-02-19T01:44:29.322Z,2.33
2023-02-19T01:46:59.012Z,2.90
2023-02-19T01:49:33.876Z,2.25
2023-02-19T01:52:31.921Z,3.45
2023-02-19T01:55:01.827Z,1.38
2023-02-19T01:57:34.369Z,0.95
2023-02-19T02:00:09.507Z,2.38
2023-02-19T02:02:37.119Z,1.30
2023-02-19T02:05:04.433Z,1.15
2023-02-19T02:07:49.533Z,1.27
2023-02-19T02:10:22.297Z,1.10
2023-02-19T02:12:53.901Z,2.88
2023-02-19T02:15:22.443Z,1.17
2023-02-19T02:18:12.933Z,2.03
2023-02-19T02:20:58.332Z,3.05
2023-02-19T02:23:58.560Z,3.78
2023-02-19T02:26:34.342Z,2.40
2023-02-19T02:29:32.529Z,3.03
2023-02-19T02:32:11.674Z,1.05
2023-02-19T02:35:08.922Z,0.95
2023-02-19T02:37:39.352Z,2.30
2023-02-19T02:40:08.926Z,1.08
2023-02-19T02:42:39.156Z,2.58
2023-02-19T02:45:36.521Z,0.90
2023-02-19T02:48:20.727Z,2.63
2023-02-19T02:51:06.934Z,0.90
2023-02-19T02:54:05.995Z,1.60
2023-02-19T02:56:34.684Z,1.55
2023-02-19T02:59:04.492Z,1.40
2023-02-19T03:02:00.279Z,1.70
2023-02-19T03:05:26.952Z,0.95
2023-02-19T03:08:12.168Z,2.38
2023-02-19T03:10:50.563Z,0.95
2023-02-19T03:14:05.582Z,0.73
2023-02-19T03:16:55.308Z,1.23
2023-02-19T03:19:25.400Z,0.82
2023-02-19T03:22:18.018Z,0.70
2023-02-19T03:25:12.923Z,0.70
2023-02-19T03:27:42.999Z,1.08
2023-02-19T03:30:21.203Z,1.00
2023-02-19T03:33:17.624Z,1.10
2023-02-19T03:35:57.002Z,1.38
2023-02-19T03:38:32.271Z,0.75
2023-02-19T03:41:11.675Z,1.15
2023-02-19T03:43:52.693Z,0.60
2023-02-19T03:46:30.330Z,0.50
2023-02-19T03:49:06.229Z,0.93
2023-02-19T03:52:02.593Z,0.73
2023-02-19T03:54:44.973Z,0.80
2023-02-19T03:57:21.563Z,0.73
2023-02-19T04:00:11.012Z,0.57
2023-02-19T04:03:11.722Z,1.15
2023-02-19T04:05:46.968Z,1.10
2023-02-19T04:08:19.902Z,1.95
2023-02-19T04:13:25.173Z,0.60
2023-02-19T04:15:57.199Z,1.25
2023-02-19T04:18:31.824Z,1.47
2023-02-19T04:21:00.718Z,1.02
2023-02-19T04:23:31.026Z,0.82
2023-02-19T04:26:00.414Z,0.68
2023-02-19T04:28:29.247Z,0.63
2023-02-19T04:30:56.105Z,1.67
2023-02-19T04:33:22.891Z,1.75
2023-02-19T04:35:49.620Z,0.77
2023-02-19T04:38:16.401Z,0.68
2023-02-19T04:40:43.201Z,0.60
2023-02-19T04:43:09.966Z,0.93
2023-02-19T04:45:39.747Z,0.60
2023-02-19T04:48:06.555Z,0.40
2023-02-19T04:50:33.355Z,1.10
2023-02-19T04:53:00.150Z,0.70
2023-02-19T04:55:26.876Z,0.47
2023-02-19T04:57:53.593Z,0.85
2023-02-19T05:00:20.550Z,3.13
2023-02-19T05:02:47.751Z,0.93
2023-02-19T05:05:14.520Z,0.50
2023-02-19T05:07:41.269Z,1.30
2023-02-19T05:10:08.230Z,0.55
2023-02-19T05:12:35.000Z,1.25
2023-02-19T05:15:01.737Z,0.80
2023-02-19T05:17:28.618Z,1.27
2023-02-19T05:19:55.363Z,0.50
2023-02-19T05:22:22.153Z,2.25
2023-02-19T05:24:48.914Z,0.50
2023-02-19T05:27:15.640Z,0.85
2023-02-19T05:29:42.388Z,1.08
2023-02-19T05:32:09.329Z,0.63
2023-02-19T05:34:36.152Z,0.40
2023-02-19T05:37:04.771Z,0.90
2023-02-19T05:39:31.576Z,0.98
2023-02-19T05:41:58.333Z,1.02
2023-02-19T05:44:25.934Z,0.98
2023-02-19T05:46:52.687Z,0.65
2023-02-19T05:49:19.433Z,0.50
2023-02-19T05:51:46.174Z,2.67
2023-02-19T05:54:12.933Z,0.70
2023-02-19T05:56:42.708Z,0.60
2023-02-19T05:59:20.937Z,0.95
2023-02-19T06:01:50.388Z,0.90
2023-02-19T06:04:19.291Z,0.82
2023-02-19T06:06:47.730Z,0.70
2023-02-19T06:09:14.481Z,1.20
2023-02-19T06:11:41.432Z,0.57
2023-02-19T06:14:08.332Z,0.50
2023-02-19T06:16:35.221Z,0.47
2023-02-19T06:19:05.444Z,0.70
2023-02-19T06:21:32.388Z,1.73
2023-02-19T06:23:59.260Z,0.88
2023-02-19T06:26:26.394Z,0.80
2023-02-19T06:28:53.737Z,0.70
2023-02-19T06:31:22.573Z,1.52
2023-02-19T06:33:50.903Z,0.70
2023-02-19T06:36:20.609Z,0.73
2023-02-19T06:38:47.476Z,0.68
2023-02-19T06:41:14.857Z,0.82
2023-02-19T06:43:42.504Z,1.33
2023-02-19T06:46:14.132Z,1.23
2023-02-19T06:48:43.299Z,2.45
2023-02-19T06:51:18.779Z,0.57
2023-02-19T06:53:46.509Z,1.58
2023-02-19T06:56:32.540Z,0.90
2023-02-19T06:59:03.107Z,0.93
2023-02-19T07:01:32.010Z,1.00
2023-02-19T07:03:59.290Z,3.67
2023-02-19T07:06:27.600Z,3.30
2023-02-19T07:08:56.338Z,7.07
2023-02-19T07:11:23.951Z,11.10
2023-02-19T07:13:56.547Z,6.70
2023-02-19T07:16:24.062Z,3.13
2023-02-19T07:18:50.948Z,2.63
2023-02-19T07:21:18.955Z,0.93
2023-02-19T07:23:46.277Z,1.27
2023-02-19T07:26:18.222Z,1.50
2023-02-19T07:28:45.967Z,0.73
2023-02-19T07:31:14.497Z,0.57
2023-02-19T07:33:46.635Z,1.17
2023-02-19T07:36:15.354Z,1.38
2023-02-19T07:38:42.127Z,1.95
2023-02-19T07:41:09.452Z,0.93
2023-02-19T07:43:38.512Z,0.40
2023-02-19T07:46:11.458Z,0.40
2023-02-19T07:51:10.659Z,0.90
2023-02-19T07:53:37.646Z,0.88
2023-02-19T07:56:07.330Z,0.25
2023-02-19T07:58:35.037Z,0.38
2023-02-19T08:01:16.513Z,0.40
2023-02-19T08:03:45.211Z,0.30
2023-02-19T08:06:12.812Z,0.50
2023-02-19T08:08:40.320Z,2.85
2023-02-19T08:11:25.976Z,1.00
2023-02-19T08:13:53.739Z,0.20
2023-02-19T08:16:36.943Z,0.50
2023-02-19T08:19:08.775Z,0.25
2023-02-19T08:21:35.537Z,0.30
2023-02-19T08:24:02.304Z,0.45
2023-02-19T08:26:29.123Z,1.25
2023-02-19T08:28:55.846Z,0.30
2023-02-19T08:31:22.677Z,0.73
2023-02-19T08:33:49.468Z,0.40
2023-02-19T08:36:16.235Z,0.32
2023-02-19T08:38:43.035Z,0.20
2023-02-19T08:41:13.892Z,0.20
2023-02-19T08:43:42.075Z,0.20
2023-02-19T08:46:10.578Z,2.05
2023-02-19T08:48:38.682Z,1.65
2023-02-19T08:51:10.238Z,0.30
2023-02-19T08:53:39.102Z,1.45
2023-02-19T08:56:15.622Z,0.28
2023-02-19T08:58:42.820Z,0.22
2023-02-19T09:01:13.767Z,0.52
2023-02-19T09:03:41.034Z,0.20
2023-02-19T09:06:08.546Z,1.00
2023-02-19T09:08:35.418Z,0.30
2023-02-19T09:11:04.750Z,0.30
2023-02-19T09:13:31.871Z,0.25
2023-02-19T09:15:58.678Z,0.30
2023-02-19T09:18:26.561Z,0.55
2023-02-19T09:20:53.385Z,0.55
2023-02-19T09:23:20.185Z,0.20
2023-02-19T09:25:47.176Z,0.40
2023-02-19T09:28:14.031Z,1.00
2023-02-19T09:30:40.818Z,0.70
2023-02-19T09:33:08.064Z,0.43
2023-02-19T09:35:34.792Z,1.20
2023-02-19T09:38:02.227Z,1.80
2023-02-19T09:40:30.562Z,0.63
2023-02-19T09:42:57.800Z,0.52
2023-02-19T09:45:26.423Z,1.45
2023-02-19T09:47:56.801Z,0.88
2023-02-19T09:50:33.724Z,0.43
2023-02-19T09:53:05.684Z,0.52
2023-02-19T09:55:51.562Z,2.53
2023-02-19T09:58:30.127Z,0.50
2023-02-19T10:01:00.948Z,2.45
2023-02-19T10:03:39.210Z,1.63
2023-02-19T10:06:29.965Z,0.30
2023-02-19T10:09:14.520Z,0.30
2023-02-19T10:11:42.252Z,1.05
2023-02-19T10:14:17.771Z,0.45
2023-02-19T10:16:48.187Z,1.25
2023-02-19T10:19:16.321Z,0.35
2023-02-19T10:21:43.858Z,1.02
2023-02-19T10:24:26.358Z,0.52
2023-02-19T10:26:53.220Z,1.25
2023-02-19T10:29:22.044Z,1.88
2023-02-19T10:31:49.063Z,0.77
2023-02-19T10:34:23.337Z,0.50
2023-02-19T10:36:52.418Z,0.55
2023-02-19T10:39:21.927Z,2.10
2023-02-19T10:41:50.933Z,2.08
2023-02-19T10:44:35.637Z,3.03
2023-02-19T10:47:02.491Z,4.82
2023-02-19T10:49:35.690Z,0.40
2023-02-19T10:52:21.742Z,2.92
2023-02-19T10:54:56.407Z,0.63
2023-02-19T10:57:33.107Z,1.23
2023-02-19T11:00:22.776Z,1.00
2023-02-19T11:02:49.723Z,0.90
2023-02-19T11:05:20.982Z,1.23
2023-02-19T11:07:56.042Z,0.75
2023-02-19T11:10:42.407Z,0.90
2023-02-19T11:13:18.565Z,1.00
2023-02-19T11:15:53.621Z,0.80
2023-02-19T11:18:28.208Z,0.73
2023-02-19T11:20:59.324Z,0.35
2023-02-19T11:23:36.561Z,0.43
2023-02-19T11:26:17.126Z,0.50
2023-02-19T11:28:44.811Z,1.15
2023-02-19T11:31:36.247Z,0.50
2023-02-19T11:34:21.423Z,0.57
2023-02-19T11:37:14.906Z,0.55
2023-02-19T11:39:45.741Z,0.40
2023-02-19T11:42:18.538Z,0.50
2023-02-19T11:44:55.274Z,0.43
2023-02-19T11:48:08.332Z,0.90
2023-02-19T11:50:59.877Z,0.50
2023-02-19T11:53:28.088Z,1.17
2023-02-19T11:56:25.017Z,0.65
2023-02-19T11:59:05.455Z,1.85
2023-02-19T12:01:56.629Z,1.83
2023-02-19T12:04:39.613Z,0.73
2023-02-19T12:07:43.545Z,0.65
2023-02-19T12:10:58.337Z,0.30
2023-02-19T12:13:49.139Z,1.00
2023-02-19T12:16:55.923Z,0.63
2023-02-19T12:19:39.399Z,0.90
2023-02-19T12:22:31.279Z,0.85
2023-02-19T12:25:25.788Z,1.17
2023-02-19T12:28:23.478Z,0.75
2023-02-19T12:31:34.806Z,0.32
2023-02-19T12:34:36.362Z,0.75
2023-02-19T12:37:24.680Z,0.80
2023-02-19T12:40:19.412Z,1.60
2023-02-19T12:43:14.099Z,0.55
2023-02-19T12:45:52.688Z,0.43
2023-02-19T12:48:44.776Z,1.35
2023-02-19T12:51:34.093Z,0.57
2023-02-19T12:54:04.400Z,0.75
2023-02-19T12:56:39.633Z,0.90
2023-02-19T12:59:23.779Z,1.15
2023-02-19T13:01:56.532Z,1.75
2023-02-19T13:04:35.126Z,0.88
2023-02-19T13:07:52.123Z,0.95
2023-02-19T13:10:35.744Z,0.60
2023-02-19T13:13:12.865Z,0.95
2023-02-19T13:15:44.352Z,1.63
2023-02-19T13:18:20.844Z,1.98
2023-02-19T13:20:49.240Z,0.50
2023-02-19T13:23:57.651Z,0.40
2023-02-19T13:27:13.253Z,0.55
2023-02-19T13:30:24.957Z,0.52
2023-02-19T13:33:55.573Z,0.95
2023-02-19T13:36:29.967Z,1.10
2023-02-19T13:38:57.802Z,1.00
2023-02-19T13:41:37.588Z,0.40
2023-02-19T13:44:08.494Z,0.40
2023-02-19T13:46:44.521Z,1.48
2023-02-19T13:49:24.140Z,0.80
2023-02-19T13:51:53.553Z,1.15
2023-02-19T13:54:40.065Z,0.65
2023-02-19T13:57:20.237Z,0.38
2023-02-19T13:59:48.395Z,0.60
2023-02-19T14:02:21.288Z,0.88
2023-02-19T14:07:54.010Z,0.28
2023-02-19T14:10:51.720Z,0.55
2023-02-19T14:13:52.510Z,1.85
2023-02-19T14:16:28.391Z,0.50
2023-02-19T14:18:56.398Z,1.23
2023-02-19T14:21:38.672Z,0.30
2023-02-19T14:24:10.843Z,2.00
2023-02-19T14:26:38.494Z,0.70
2023-02-19T14:29:08.731Z,0.65
2023-02-19T14:31:39.324Z,0.75
2023-02-19T14:34:14.979Z,1.90
2023-02-19T14:36:51.884Z,1.85
2023-02-19T14:39:35.238Z,1.48
2023-02-19T14:42:34.193Z,1.05
2023-02-19T14:45:03.895Z,2.42
2023-02-19T14:47:35.103Z,1.00
2023-02-19T14:50:13.629Z,0.80
2023-02-19T14:52:54.312Z,2.95
2023-02-19T14:55:32.914Z,0.75
2023-02-19T14:58:05.251Z,2.33
2023-02-19T15:00:43.126Z,1.77
2023-02-19T15:03:37.406Z,5.47
2023-02-19T15:06:07.200Z,2.05
2023-02-19T15:08:38.875Z,1.73
2023-02-19T15:11:14.639Z,2.65
2023-02-19T15:13:45.744Z,1.92
2023-02-19T15:16:22.651Z,3.85
2023-02-19T15:18:51.978Z,1.15
2023-02-19T15:21:28.661Z,1.75
2023-02-19T15:24:01.745Z,1.60
2023-02-19T15:26:36.397Z,1.48
2023-02-19T15:29:10.743Z,1.00
2023-02-19T15:31:56.058Z,0.70
2023-02-19T15:34:27.046Z,0.75
2023-02-19T15:37:07.015Z,1.95
2023-02-19T15:39:35.338Z,3.00
2023-02-19T15:42:05.357Z,1.80
2023-02-19T15:44:42.013Z,0.70
2023-02-19T15:47:39.078Z,1.23
2023-02-19T15:50:26.116Z,1.00
2023-02-19T15:53:03.656Z,1.02
2023-02-19T15:55:46.245Z,3.55
2023-02-19T15:58:40.398Z,2.25
2023-02-19T16:01:25.712Z,4.82
2023-02-19T16:03:56.349Z,3.45
2023-02-19T16:06:26.270Z,1.35
2023-02-19T16:08:52.998Z,0.60
2023-02-19T16:11:22.763Z,1.95
2023-02-19T16:13:52.012Z,3.72
2023-02-19T16:16:24.172Z,2.15
2023-02-19T16:18:52.423Z,1.52
2023-02-19T16:21:23.919Z,1.15
2023-02-19T16:24:01.880Z,1.60
2023-02-19T16:26:28.740Z,1.13
2023-02-19T16:28:56.605Z,2.15
2023-02-19T16:31:24.076Z,1.30
2023-02-19T16:33:51.470Z,1.20
2023-02-19T16:36:34.890Z,1.65
2023-02-19T16:39:07.490Z,1.33
2023-02-19T16:41:40.150Z,4.68
2023-02-19T16:44:21.763Z,2.35
2023-02-19T16:46:54.294Z,2.13
2023-02-19T16:49:24.067Z,1.60
2023-02-19T16:51:51.475Z,2.67
2023-02-19T16:54:18.203Z,7.22
2023-02-19T16:56:44.951Z,2.55
2023-02-19T16:59:11.684Z,5.22
2023-02-19T17:01:38.770Z,3.38
2023-02-19T17:04:08.681Z,4.97
2023-02-19T17:06:37.947Z,2.80
2023-02-19T17:09:06.882Z,2.78
2023-02-19T17:11:33.650Z,2.80
2023-02-19T17:14:00.911Z,1.60
2023-02-19T17:16:32.138Z,1.25
2023-02-19T17:18:58.997Z,3.90
2023-02-19T17:21:32.049Z,3.08
2023-02-19T17:23:58.787Z,1.17
2023-02-19T17:26:31.682Z,1.55
2023-02-19T17:31:27.534Z,7.45
2023-02-19T17:33:54.930Z,1.30
2023-02-19T17:36:30.926Z,5.85
2023-02-19T17:39:02.776Z,3.75
2023-02-19T17:41:29.879Z,2.15
2023-02-19T17:43:56.646Z,2.78
2023-02-19T17:46:26.708Z,4.25
2023-02-19T17:48:54.885Z,1.35
2023-02-19T17:51:22.239Z,2.25
2023-02-19T17:53:49.458Z,2.15
2023-02-19T17:56:23.904Z,1.27
2023-02-19T17:58:50.650Z,2.88
2023-02-19T18:01:17.929Z,0.80
2023-02-19T18:03:44.795Z,5.18
2023-02-19T18:06:11.864Z,2.25
2023-02-19T18:08:38.690Z,1.98
2023-02-19T18:11:07.096Z,3.20
2023-02-19T18:13:33.847Z,1.15
2023-02-19T18:16:00.614Z,2.67
2023-02-19T18:18:27.358Z,2.55
2023-02-19T18:20:54.103Z,4.75
2023-02-19T18:23:20.836Z,2.15
2023-02-19T18:25:47.717Z,3.33
2023-02-19T18:28:15.158Z,1.85
2023-02-19T18:30:42.061Z,3.20
2023-02-19T18:33:11.023Z,8.10
2023-02-19T18:35:38.574Z,14.18
2023-02-19T18:38:06.125Z,35.58
2023-02-19T18:40:32.854Z,33.95
2023-02-19T18:42:59.864Z,19.63
2023-02-19T18:45:27.656Z,16.42
2023-02-19T18:47:54.534Z,11.30
2023-02-19T18:50:21.482Z,6.88
2023-02-19T18:52:48.304Z,5.65
2023-02-19T18:55:15.157Z,11.82
2023-02-19T18:57:41.977Z,16.48
2023-02-19T19:00:09.622Z,24.13
2023-02-19T19:02:48.711Z,17.40
2023-02-19T19:05:23.739Z,16.98
2023-02-19T19:07:56.545Z,15.55
2023-02-19T19:10:24.019Z,18.90
2023-02-19T19:12:51.408Z,16.02
2023-02-19T19:15:19.029Z,15.80
2023-02-19T19:17:47.749Z,11.20
2023-02-19T19:20:17.987Z,16.48
2023-02-19T19:22:44.758Z,32.28
2023-02-19T19:25:11.822Z,47.83
2023-02-19T19:27:38.596Z,87.55
2023-02-19T19:30:06.337Z,96.03
2023-02-19T19:32:33.099Z,51.38
2023-02-19T19:35:00.049Z,60.95
2023-02-19T19:37:28.907Z,41.35
2023-02-19T19:39:56.554Z,26.70
2023-02-19T19:42:23.703Z,14.85
2023-02-19T19:44:50.658Z,19.30
2023-02-19T19:47:17.486Z,10.55
2023-02-19T19:49:47.402Z,11.80
2023-02-19T19:52:14.752Z,10.43
2023-02-19T19:54:43.265Z,9.88
2023-02-19T19:57:10.800Z,8.38
2023-02-19T19:59:39.474Z,7.90
2023-02-19T20:02:07.972Z,7.65
2023-02-19T20:04:34.875Z,10.15
2023-02-19T20:07:02.333Z,24.48
2023-02-19T20:09:29.426Z,22.85
2023-02-19T20:11:56.654Z,10.00
2023-02-19T20:14:25.102Z,3.58
2023-02-19T20:16:52.959Z,3.63
2023-02-19T20:19:20.980Z,4.05
2023-02-19T20:21:53.240Z,2.72
2023-02-19T20:24:28.681Z,3.03
2023-02-19T20:27:02.082Z,12.25
2023-02-19T20:29:31.514Z,23.55
2023-02-19T20:32:00.293Z,13.40
2023-02-19T20:34:27.437Z,21.77
2023-02-19T20:36:54.704Z,18.55
2023-02-19T20:39:22.192Z,13.00
2023-02-19T20:41:51.951Z,12.70
2023-02-19T20:44:19.363Z,16.98
2023-02-19T20:46:49.661Z,7.85
2023-02-19T20:49:19.492Z,8.82
2023-02-19T20:52:01.898Z,4.43
2023-02-19T20:54:31.694Z,5.03
2023-02-19T20:57:02.969Z,3.70
2023-02-19T20:59:35.171Z,6.28
2023-02-19T21:02:04.090Z,5.57
2023-02-19T21:04:31.419Z,2.50
2023-02-19T21:06:58.529Z,2.63
2023-02-19T21:09:25.407Z,3.55
2023-02-19T21:11:53.523Z,3.60
2023-02-19T21:14:20.540Z,3.50
2023-02-19T21:16:47.493Z,5.30
2023-02-19T21:19:14.344Z,4.22
2023-02-19T21:21:41.108Z,2.67
2023-02-19T21:24:09.828Z,5.00
2023-02-19T21:26:39.701Z,2.97
2023-02-19T21:29:08.388Z,3.15
2023-02-19T21:31:41.644Z,10.15
2023-02-19T21:34:12.223Z,4.18
2023-02-19T21:36:39.490Z,2.30
2023-02-19T21:39:08.600Z,4.15
2023-02-19T21:41:35.630Z,1.35
2023-02-19T21:44:04.192Z,1.40
2023-02-19T21:46:33.003Z,3.17
2023-02-19T21:49:00.898Z,2.83
2023-02-19T21:51:41.251Z,2.08
2023-02-19T21:54:12.653Z,2.08
2023-02-19T21:56:39.385Z,2.13
2023-02-19T21:59:06.116Z,2.10
2023-02-19T22:01:40.010Z,1.58
2023-02-19T22:04:08.670Z,1.70
2023-02-19T22:06:35.625Z,2.53
2023-02-19T22:09:02.924Z,3.70
2023-02-19T22:11:29.700Z,1.35
2023-02-19T22:13:56.440Z,1.20
2023-02-19T22:16:23.919Z,3.20
2023-02-19T22:18:54.636Z,2.70
2023-02-19T22:21:23.474Z,2.03
2023-02-19T22:23:52.822Z,5.38
2023-02-19T22:26:30.619Z,2.80
2023-02-19T22:28:59.596Z,2.38
2023-02-19T22:31:27.863Z,4.07
2023-02-19T22:33:56.485Z,6.57
2023-02-19T22:36:27.855Z,7.53
2023-02-19T22:38:54.911Z,1.90
2023-02-19T22:41:22.894Z,1.95
2023-02-19T22:43:50.156Z,3.53
2023-02-19T22:46:20.382Z,3.30
2023-02-19T22:48:47.724Z,5.75
2023-02-19T22:51:18.018Z,12.75
2023-02-19T22:53:53.719Z,11.40
2023-02-19T22:56:23.790Z,6.05
2023-02-19T22:58:51.280Z,4.15
2023-02-19T23:01:19.067Z,4.57
2023-02-19T23:03:56.707Z,3.45
2023-02-19T23:06:29.675Z,2.28
2023-02-19T23:11:31.776Z,6.60
2023-02-19T23:13:58.824Z,2.53
2023-02-19T23:16:25.837Z,5.40
2023-02-19T23:18:52.808Z,2.30
2023-02-19T23:21:20.960Z,4.50
2023-02-19T23:23:47.895Z,2.78
2023-02-19T23:26:16.363Z,3.75
2023-02-19T23:28:44.480Z,4.30
2023-02-19T23:31:12.685Z,7.68
2023-02-19T23:33:39.868Z,2.28
2023-02-19T23:36:07.428Z,3.33
2023-02-19T23:38:34.308Z,4.10
2023-02-19T23:41:01.287Z,5.35
2023-02-19T23:43:28.237Z,3.00
2023-02-19T23:45:55.154Z,2.38
2023-02-19T23:48:21.933Z,2.05
2023-02-19T23:50:48.663Z,1.92
2023-02-19T23:53:15.403Z,1.98
2023-02-19T23:55:42.190Z,2.55
2023-02-19T23:58:08.961Z,1.27
